EW6047 Weather Reports


Display with metric or nautical units.
time (UTC)temp
F
wind
direction
speed
MPH
gust
MPH
rain 1hr
in
rain 24hr
in
rain mn
in
humidity
%
barometer
mb
20180622221614 70 323 0.0 2.0 0.00 0.00 0.00 81 1010.3
20180622220714 70 0 0.0 0.0 0.00 0.00 0.00 81 1010.5
20180622215814 70 0 0.0 1.0 0.00 0.00 0.00 81 1010.4
20180622214914 70 0 0.0 0.0 0.00 0.00 0.00 80 1010.6
20180622214014 70 0 0.0 0.0 0.00 0.00 0.00 81 1010.8
20180622213114 70 0 0.0 0.0 0.00 0.00 0.00 80 1011.0
20180622212214 70 0 0.0 0.0 0.00 0.00 0.00 81 1010.9
20180622211314 69 0 0.0 0.0 0.00 0.00 0.00 81 1011.1
20180622210414 69 0 0.0 0.0 0.00 0.00 0.00 80 1011.2
20180622205514 71 0 0.0 1.0 0.00 0.00 0.00 78 1011.4
20180622204614 71 1 0.0 2.0 0.00 0.00 0.00 80 1011.2
20180622203714 71 0 0.0 0.0 0.00 0.00 0.00 78 1011.2
20180622202814 71 0 0.0 1.0 0.00 0.00 0.00 79 1011.4
20180622201914 71 146 0.0 2.0 0.00 0.00 0.00 79 1011.4
20180622201014 70 181 0.0 1.0 0.00 0.00 0.00 78 1011.4
20180622200114 71 20 0.0 3.0 0.00 0.00 0.00 77 1011.3
20180622195214 70 221 0.0 2.0 0.00 0.00 0.00 79 1011.6
20180622194314 69 280 0.0 3.0 0.00 0.00 0.00 80 1011.5
20180622193414 71 323 1.0 4.0 0.00 0.00 0.00 74 1011.6
20180622192514 74 300 1.0 6.0 0.00 0.00 0.00 71 1011.4
20180622191614 76 164 0.0 3.0 0.00 0.00 0.00 71 1011.2
20180622190714 72 336 1.0 7.0 0.00 0.00 0.00 77 1011.5
20180622185814 70 345 1.0 5.0 0.00 0.00 0.00 80 1011.6
20180622184914 72 33 0.0 1.0 0.00 0.00 0.00 76 1012.0
20180622184014 70 351 1.0 4.0 0.00 0.00 0.00 81 1012.0
20180622183114 68 347 1.0 5.0 0.00 0.00 0.00 82 1012.2
20180622182214 71 259 0.0 4.0 0.00 0.00 0.00 78 1012.3
20180622181314 71 353 0.0 4.0 0.00 0.00 0.00 80 1012.3
20180622180414 71 350 0.0 3.0 0.00 0.00 0.00 79 1012.4
20180622175514 71 301 1.0 5.0 0.00 0.00 0.00 81 1012.0
20180622174614 67 341 1.0 5.0 0.00 0.00 0.00 88 1012.3
20180622173714 65 1 1.0 6.0 0.00 0.00 0.00 91 1012.3
20180622172814 65 299 2.0 7.0 0.00 0.00 0.00 90 1012.4
20180622171914 66 340 1.0 6.0 0.00 0.00 0.00 89 1012.5
20180622171014 65 354 2.0 9.0 0.00 0.00 0.00 92 1012.3
20180622170114 65 342 2.0 7.0 0.00 0.00 0.00 92 1012.4
20180622165214 64 334 1.0 5.0 0.00 0.00 0.00 90 1012.7
20180622164314 65 345 1.0 4.0 0.00 0.00 0.00 89 1012.6
20180622163414 65 2 1.0 6.0 0.00 0.00 0.00 88 1012.3
20180622162514 65 20 1.0 5.0 0.00 0.00 0.00 89 1012.7
20180622161614 65 52 1.0 5.0 0.00 0.00 0.00 89 1012.5
20180622160714 65 349 1.0 5.0 0.00 0.00 0.00 89 1012.6
20180622155814 65 321 1.0 6.0 0.00 0.00 0.00 88 1012.2
20180622154914 65 308 1.0 5.0 0.00 0.00 0.00 89 1012.6
20180622154014 65 6 2.0 7.0 0.00 0.00 0.00 93 1012.5
20180622153114 63 353 2.0 7.0 0.00 0.00 0.00 93 1012.4
20180622152214 64 337 1.0 4.0 0.00 0.00 0.00 93 1012.4
20180622151314 63 326 1.0 4.0 0.00 0.00 0.00 93 1012.4
20180622150414 63 313 1.0 4.0 0.00 0.00 0.00 94 1012.4
20180622145514 63 350 2.0 5.0 0.00 0.01 0.00 95 1012.4
20180622144614 63 348 2.0 7.0 0.00 0.01 0.00 95 1012.3
20180622143714 64 341 2.0 6.0 0.00 0.01 0.00 95 1012.2
20180622142814 64 340 2.0 7.0 0.00 0.01 0.00 94 1012.2
20180622141914 64 8 2.0 7.0 0.00 0.01 0.00 93 1012.2
20180622141014 64 290 1.0 6.0 0.00 0.01 0.00 93 1012.0
20180622140114 64 313 2.0 8.0 0.00 0.02 0.00 92 1012.2
20180622135214 64 313 2.0 8.0 0.00 0.04 0.00 91 1012.0
20180622134314 65 5 2.0 8.0 0.00 0.05 0.00 93 1012.2
20180622133414 64 339 2.0 10.0 0.00 0.06 0.00 92 1011.9
20180622132514 65 354 2.0 7.0 0.00 0.06 0.00 93 1012.1
20180622131614 65 353 2.0 7.0 0.00 0.07 0.00 94 1012.1
20180622130714 64 2 2.0 7.0 0.00 0.07 0.00 95 1012.0
20180622125814 64 316 1.0 5.0 0.00 0.08 0.00 97 1011.9
20180622124914 64 322 2.0 6.0 0.00 0.08 0.00 97 1011.7
20180622124014 63 333 1.0 6.0 0.00 0.08 0.00 97 1012.1
20180622123114 63 359 1.0 4.0 0.00 0.11 0.00 97 1011.8
20180622122214 63 312 1.0 4.0 0.00 0.11 0.00 97 1011.7
20180622121314 63 156 1.0 3.0 0.00 0.12 0.00 97 1011.7
20180622120414 63 230 1.0 4.0 0.00 0.12 0.00 97 1011.9
20180622115514 63 4 1.0 4.0 0.00 0.12 0.00 97 1011.7
20180622114614 63 2 0.0 3.0 0.00 0.12 0.00 97 1011.8
20180622113714 63 329 1.0 4.0 0.00 0.12 0.00 97 1011.8
20180622112814 63 341 0.0 3.0 0.00 0.12 0.00 97 1011.8
20180622111914 63 268 0.0 3.0 0.00 0.12 0.00 97 1011.7
20180622111014 63 333 0.0 3.0 0.00 0.12 0.00 97 1011.5
20180622110114 62 4 1.0 4.0 0.00 0.12 0.00 98 1011.2
20180622105214 62 356 0.0 3.0 0.00 0.13 0.00 98 1010.9
20180622104314 63 321 0.0 5.0 0.00 0.13 0.00 97 1011.2
20180622103414 63 333 0.0 5.0 0.00 0.13 0.00 97 1011.2
20180622102514 63 305 1.0 3.0 0.00 0.13 0.00 97 1011.2
20180622101619 63 328 1.0 5.0 0.00 0.13 0.00 97 1011.3
20180622100714 63 357 2.0 7.0 0.00 0.14 0.00 97 1011.2
20180622095814 63 277 1.0 4.0 0.00 0.14 0.00 97 1011.5
20180622094914 63 327 1.0 5.0 0.00 0.15 0.00 97 1011.2
20180622094014 63 2 1.0 6.0 0.00 0.17 0.00 97 1011.0
20180622093114 63 358 1.0 5.0 0.00 0.18 0.00 97 1010.7
20180622092214 63 330 1.0 5.0 0.00 0.18 0.00 97 1011.0
20180622091314 63 344 1.0 4.0 0.00 0.18 0.00 97 1011.1
20180622090415 63 348 1.0 7.0 0.00 0.18 0.00 97 1011.3
20180622085514 63 329 1.0 6.0 0.00 0.18 0.00 97 1011.0
20180622084614 63 313 1.0 7.0 0.00 0.18 0.00 97 1011.3
20180622083714 63 314 2.0 5.0 0.00 0.18 0.00 97 1011.2
20180622082814 64 344 1.0 4.0 0.00 0.18 0.00 97 1011.2
20180622081914 64 355 2.0 9.0 0.00 0.18 0.00 97 1011.1
20180622081014 64 294 1.0 5.0 0.00 0.18 0.00 97 1011.3
20180622080114 64 355 1.0 4.0 0.00 0.18 0.00 97 1011.0
20180622075214 64 327 1.0 6.0 0.00 0.18 0.00 97 1011.3
20180622074314 64 357 2.0 8.0 0.00 0.18 0.00 97 1011.4
20180622073414 64 5 1.0 5.0 0.00 0.18 0.00 97 1011.0
20180622072514 64 13 2.0 7.0 0.00 0.18 0.00 97 1011.1
20180622071614 64 339 2.0 7.0 0.00 0.18 0.00 97 1011.2
20180622070715 64 346 2.0 6.0 0.00 0.18 0.00 97 1011.1
20180622065814 64 331 1.0 6.0 0.00 0.18 0.00 97 1011.3
20180622064914 64 343 1.0 5.0 0.00 0.18 0.00 97 1011.4
20180622064014 64 318 1.0 3.0 0.00 0.18 0.00 99 1011.6
20180622063114 64 4 1.0 5.0 0.00 0.18 0.00 99 1011.5
20180622062214 65 284 1.0 5.0 0.00 0.18 0.00 99 1011.7
20180622061314 65 323 1.0 4.0 0.00 0.18 0.00 99 1011.6
20180622060414 65 348 1.0 3.0 0.00 0.18 0.00 99 1011.6
20180622055514 65 296 1.0 5.0 0.00 0.18 0.00 99 1011.5
20180622054614 65 92 2.0 7.0 0.00 0.18 0.00 99 1011.5
20180622053714 65 330 2.0 5.0 0.00 0.18 0.00 99 1011.3
20180622052814 65 327 2.0 7.0 0.00 0.18 0.00 99 1011.3
20180622051914 65 353 1.0 7.0 0.00 0.18 0.00 98 1011.3
20180622051014 65 299 2.0 6.0 0.00 0.18 0.00 98 1011.3
20180622050114 65 294 1.0 6.0 0.00 0.18 0.00 98 1011.1
20180622045214 66 310 1.0 5.0 0.00 0.18 0.18 97 1011.2
20180622044314 66 329 1.0 3.0 0.00 0.18 0.18 97 1011.3
20180622043414 66 347 2.0 7.0 0.00 0.18 0.18 97 1011.5
20180622042514 66 346 2.0 6.0 0.00 0.18 0.18 97 1011.5
20180622041614 66 302 1.0 4.0 0.00 0.18 0.18 96 1011.5
20180622040714 66 270 0.0 3.0 0.00 0.18 0.18 96 1011.5
20180622035814 66 337 1.0 7.0 0.00 0.18 0.18 96 1011.7
20180622034914 66 310 1.0 3.0 0.00 0.18 0.18 96 1011.6
20180622034014 66 1 1.0 6.0 0.00 0.18 0.18 96 1011.7
20180622033114 66 333 2.0 6.0 0.00 0.18 0.18 95 1011.5
20180622032214 66 326 1.0 8.0 0.00 0.18 0.18 95 1011.6
20180622031314 66 316 2.0 8.0 0.00 0.18 0.18 95 1011.4
20180622030414 66 348 2.0 7.0 0.00 0.18 0.18 94 1011.1
20180622025514 66 343 2.0 7.0 0.00 0.18 0.18 94 1011.1
20180622024614 67 306 2.0 6.0 0.00 0.18 0.18 94 1011.0
20180622023714 67 286 2.0 6.0 0.00 0.18 0.18 94 1011.0
20180622022814 67 339 2.0 9.0 0.00 0.18 0.18 95 1010.9
20180622021914 67 312 1.0 6.0 0.00 0.18 0.18 97 1010.9
20180622021014 67 201 0.0 6.0 0.00 0.18 0.18 96 1010.9
20180622020114 67 236 1.0 6.0 0.00 0.18 0.18 96 1010.8
20180622015214 67 285 1.0 5.0 0.00 0.18 0.18 96 1010.8
20180622014314 67 292 2.0 5.0 0.00 0.18 0.18 96 1010.4
20180622013414 67 286 1.0 5.0 0.00 0.18 0.18 95 1010.6
20180622012513 67 282 2.0 7.0 0.00 0.18 0.18 95 1010.5
20180622011614 67 302 2.0 6.0 0.00 0.18 0.18 95 1010.4
20180622010714 67 280 2.0 6.0 0.00 0.18 0.18 95 1010.6
20180622005814 67 278 2.0 6.0 0.00 0.18 0.18 95 1010.4
20180622004914 67 295 3.0 7.0 0.00 0.18 0.18 94 1010.3
20180622004014 67 292 3.0 7.0 0.00 0.18 0.18 94 1010.3
20180622003114 67 353 2.0 9.0 0.00 0.18 0.18 94 1010.3
20180622002214 67 290 3.0 9.0 0.00 0.18 0.18 93 1010.4
20180622001314 67 280 2.0 6.0 0.00 0.18 0.18 93 1010.3
20180622000413 67 306 2.0 6.0 0.00 0.18 0.18 92 1010.1
20180621235514 67 273 2.0 7.0 0.00 0.18 0.18 92 1010.0
20180621234614 67 290 3.0 7.0 0.00 0.18 0.18 92 1009.9
20180621233714 67 320 2.0 8.0 0.00 0.18 0.18 91 1009.9
20180621232814 68 323 1.0 4.0 0.00 0.18 0.18 90 1009.8
20180621231914 68 284 2.0 8.0 0.00 0.18 0.18 90 1009.9
20180621231014 68 286 2.0 9.0 0.00 0.18 0.18 90 1010.0
20180621230114 68 316 2.0 7.0 0.00 0.18 0.18 90 1009.8
20180621225214 68 291 2.0 7.0 0.00 0.18 0.18 89 1010.0
20180621224313 68 303 2.0 7.0 0.00 0.18 0.18 88 1010.0
20180621223413 68 310 4.0 11.0 0.00 0.18 0.18 89 1010.0
20180621222514 67 304 3.0 11.0 0.00 0.18 0.18 90 1010.0